sensor_id;sensor_type;location;lat;lon;timestamp;P1;durP1;ratioP1;P2;durP2;ratioP2
70052;SDS011;57398;52.032;4.376;2023-02-15T00:00:01;75.47;;;27.13;;
70052;SDS011;57398;52.032;4.376;2023-02-15T00:02:49;72.82;;;27.08;;
70052;SDS011;57398;52.032;4.376;2023-02-15T00:05:39;72.00;;;26.92;;
70052;SDS011;57398;52.032;4.376;2023-02-15T00:08:27;69.60;;;28.15;;
70052;SDS011;57398;52.032;4.376;2023-02-15T00:11:16;74.73;;;28.07;;
70052;SDS011;57398;52.032;4.376;2023-02-15T00:14:26;65.32;;;26.02;;
70052;SDS011;57398;52.032;4.376;2023-02-15T00:17:14;67.40;;;26.52;;
70052;SDS011;57398;52.032;4.376;2023-02-15T00:20:02;69.40;;;26.33;;
70052;SDS011;57398;52.032;4.376;2023-02-15T00:22:52;72.60;;;27.13;;
70052;SDS011;57398;52.032;4.376;2023-02-15T00:25:40;65.27;;;26.20;;
70052;SDS011;57398;52.032;4.376;2023-02-15T00:28:28;65.43;;;26.65;;
70052;SDS011;57398;52.032;4.376;2023-02-15T00:31:17;65.68;;;26.48;;
70052;SDS011;57398;52.032;4.376;2023-02-15T00:34:06;67.80;;;25.23;;
70052;SDS011;57398;52.032;4.376;2023-02-15T00:36:58;65.70;;;26.00;;
70052;SDS011;57398;52.032;4.376;2023-02-15T00:39:47;69.97;;;25.17;;
70052;SDS011;57398;52.032;4.376;2023-02-15T00:42:35;67.38;;;26.73;;
70052;SDS011;57398;52.032;4.376;2023-02-15T00:45:24;64.75;;;24.83;;
70052;SDS011;57398;52.032;4.376;2023-02-15T00:48:12;61.17;;;25.33;;
70052;SDS011;57398;52.032;4.376;2023-02-15T00:51:00;65.10;;;24.58;;
70052;SDS011;57398;52.032;4.376;2023-02-15T00:53:49;64.67;;;25.17;;
70052;SDS011;57398;52.032;4.376;2023-02-15T00:56:38;61.83;;;25.33;;
70052;SDS011;57398;52.032;4.376;2023-02-15T00:59:26;67.10;;;25.15;;
70052;SDS011;57398;52.032;4.376;2023-02-15T01:02:14;70.22;;;26.02;;
70052;SDS011;57398;52.032;4.376;2023-02-15T01:05:03;48.97;;;22.08;;
70052;SDS011;57398;52.032;4.376;2023-02-15T01:07:52;51.50;;;21.90;;
70052;SDS011;57398;52.032;4.376;2023-02-15T01:10:40;59.10;;;23.23;;
70052;SDS011;57398;52.032;4.376;2023-02-15T01:13:31;61.42;;;25.30;;
70052;SDS011;57398;52.032;4.376;2023-02-15T01:16:20;59.42;;;24.15;;
70052;SDS011;57398;52.032;4.376;2023-02-15T01:19:09;59.85;;;24.88;;
70052;SDS011;57398;52.032;4.376;2023-02-15T01:21:57;65.63;;;25.10;;
70052;SDS011;57398;52.032;4.376;2023-02-15T01:24:48;59.85;;;24.25;;
70052;SDS011;57398;52.032;4.376;2023-02-15T01:27:36;60.28;;;24.35;;
70052;SDS011;57398;52.032;4.376;2023-02-15T01:30:26;61.90;;;23.08;;
70052;SDS011;57398;52.032;4.376;2023-02-15T01:33:14;55.95;;;23.20;;
70052;SDS011;57398;52.032;4.376;2023-02-15T01:36:05;57.63;;;22.93;;
70052;SDS011;57398;52.032;4.376;2023-02-15T01:38:53;61.47;;;23.77;;
70052;SDS011;57398;52.032;4.376;2023-02-15T01:41:41;59.00;;;22.70;;
70052;SDS011;57398;52.032;4.376;2023-02-15T01:44:49;58.10;;;24.10;;
70052;SDS011;57398;52.032;4.376;2023-02-15T01:47:40;57.92;;;24.58;;
70052;SDS011;57398;52.032;4.376;2023-02-15T01:50:32;61.97;;;22.97;;
70052;SDS011;57398;52.032;4.376;2023-02-15T01:53:24;54.97;;;23.90;;
70052;SDS011;57398;52.032;4.376;2023-02-15T01:56:15;59.20;;;23.48;;
70052;SDS011;57398;52.032;4.376;2023-02-15T01:59:07;63.00;;;24.08;;
70052;SDS011;57398;52.032;4.376;2023-02-15T02:01:59;61.40;;;24.05;;
70052;SDS011;57398;52.032;4.376;2023-02-15T02:04:51;64.43;;;23.63;;
70052;SDS011;57398;52.032;4.376;2023-02-15T02:07:42;64.28;;;25.38;;
70052;SDS011;57398;52.032;4.376;2023-02-15T02:10:33;58.53;;;24.52;;
70052;SDS011;57398;52.032;4.376;2023-02-15T02:13:21;63.75;;;23.88;;
70052;SDS011;57398;52.032;4.376;2023-02-15T02:16:11;58.97;;;24.30;;
70052;SDS011;57398;52.032;4.376;2023-02-15T02:19:10;60.57;;;24.13;;
70052;SDS011;57398;52.032;4.376;2023-02-15T02:22:30;62.33;;;24.27;;
70052;SDS011;57398;52.032;4.376;2023-02-15T02:29:17;65.18;;;24.25;;
70052;SDS011;57398;52.032;4.376;2023-02-15T02:35:48;53.60;;;22.30;;
70052;SDS011;57398;52.032;4.376;2023-02-15T02:38:47;59.20;;;22.27;;
70052;SDS011;57398;52.032;4.376;2023-02-15T02:41:44;58.58;;;22.60;;
70052;SDS011;57398;52.032;4.376;2023-02-15T02:44:41;54.10;;;21.30;;
70052;SDS011;57398;52.032;4.376;2023-02-15T02:47:32;58.53;;;23.35;;
70052;SDS011;57398;52.032;4.376;2023-02-15T02:50:26;61.53;;;23.33;;
70052;SDS011;57398;52.032;4.376;2023-02-15T02:53:15;55.92;;;22.42;;
70052;SDS011;57398;52.032;4.376;2023-02-15T02:56:05;50.88;;;21.85;;
70052;SDS011;57398;52.032;4.376;2023-02-15T02:59:09;55.80;;;21.52;;
70052;SDS011;57398;52.032;4.376;2023-02-15T03:02:04;56.60;;;21.67;;
70052;SDS011;57398;52.032;4.376;2023-02-15T03:05:00;56.33;;;24.20;;
70052;SDS011;57398;52.032;4.376;2023-02-15T03:07:54;53.67;;;20.98;;
70052;SDS011;57398;52.032;4.376;2023-02-15T03:10:44;54.88;;;22.77;;
70052;SDS011;57398;52.032;4.376;2023-02-15T03:13:32;52.40;;;21.70;;
70052;SDS011;57398;52.032;4.376;2023-02-15T03:16:21;51.25;;;21.50;;
70052;SDS011;57398;52.032;4.376;2023-02-15T03:19:14;52.30;;;20.80;;
70052;SDS011;57398;52.032;4.376;2023-02-15T03:22:05;53.10;;;21.38;;
70052;SDS011;57398;52.032;4.376;2023-02-15T03:25:04;67.15;;;23.15;;
70052;SDS011;57398;52.032;4.376;2023-02-15T03:27:58;56.35;;;22.92;;
70052;SDS011;57398;52.032;4.376;2023-02-15T03:30:51;57.08;;;23.10;;
70052;SDS011;57398;52.032;4.376;2023-02-15T03:33:44;57.67;;;23.03;;
70052;SDS011;57398;52.032;4.376;2023-02-15T03:36:39;54.22;;;22.48;;
70052;SDS011;57398;52.032;4.376;2023-02-15T03:39:33;55.72;;;22.05;;
70052;SDS011;57398;52.032;4.376;2023-02-15T03:42:26;59.80;;;22.77;;
70052;SDS011;57398;52.032;4.376;2023-02-15T03:45:20;54.47;;;22.95;;
70052;SDS011;57398;52.032;4.376;2023-02-15T03:48:12;51.43;;;21.60;;
70052;SDS011;57398;52.032;4.376;2023-02-15T03:51:02;55.45;;;22.73;;
70052;SDS011;57398;52.032;4.376;2023-02-15T03:54:11;54.28;;;21.63;;
70052;SDS011;57398;52.032;4.376;2023-02-15T03:57:24;55.70;;;21.90;;
70052;SDS011;57398;52.032;4.376;2023-02-15T04:00:32;51.53;;;21.83;;
70052;SDS011;57398;52.032;4.376;2023-02-15T04:03:43;54.33;;;22.30;;
70052;SDS011;57398;52.032;4.376;2023-02-15T04:06:37;48.08;;;21.48;;
70052;SDS011;57398;52.032;4.376;2023-02-15T04:09:25;54.42;;;21.98;;
70052;SDS011;57398;52.032;4.376;2023-02-15T04:12:31;59.50;;;22.50;;
70052;SDS011;57398;52.032;4.376;2023-02-15T04:15:20;55.72;;;21.90;;
70052;SDS011;57398;52.032;4.376;2023-02-15T04:18:25;51.57;;;20.13;;
70052;SDS011;57398;52.032;4.376;2023-02-15T04:21:31;51.05;;;20.90;;
70052;SDS011;57398;52.032;4.376;2023-02-15T04:24:37;52.35;;;21.27;;
70052;SDS011;57398;52.032;4.376;2023-02-15T04:27:44;54.05;;;21.95;;
70052;SDS011;57398;52.032;4.376;2023-02-15T04:30:34;58.50;;;22.80;;
70052;SDS011;57398;52.032;4.376;2023-02-15T04:33:23;52.93;;;21.13;;
70052;SDS011;57398;52.032;4.376;2023-02-15T04:36:11;50.53;;;21.15;;
70052;SDS011;57398;52.032;4.376;2023-02-15T04:38:59;53.30;;;22.10;;
70052;SDS011;57398;52.032;4.376;2023-02-15T04:41:47;52.78;;;21.25;;
70052;SDS011;57398;52.032;4.376;2023-02-15T04:44:36;54.38;;;20.70;;
70052;SDS011;57398;52.032;4.376;2023-02-15T04:47:25;49.43;;;20.80;;
70052;SDS011;57398;52.032;4.376;2023-02-15T04:50:13;56.05;;;21.38;;
70052;SDS011;57398;52.032;4.376;2023-02-15T04:53:01;53.53;;;22.13;;
70052;SDS011;57398;52.032;4.376;2023-02-15T04:55:49;54.00;;;21.10;;
70052;SDS011;57398;52.032;4.376;2023-02-15T04:58:38;56.70;;;22.55;;
70052;SDS011;57398;52.032;4.376;2023-02-15T05:01:29;50.90;;;20.80;;
70052;SDS011;57398;52.032;4.376;2023-02-15T05:04:17;48.85;;;19.95;;
70052;SDS011;57398;52.032;4.376;2023-02-15T05:07:05;51.20;;;20.98;;
70052;SDS011;57398;52.032;4.376;2023-02-15T05:09:54;55.60;;;21.30;;
70052;SDS011;57398;52.032;4.376;2023-02-15T05:12:42;51.95;;;21.75;;
70052;SDS011;57398;52.032;4.376;2023-02-15T05:15:30;52.40;;;21.20;;
70052;SDS011;57398;52.032;4.376;2023-02-15T05:18:20;49.53;;;21.17;;
70052;SDS011;57398;52.032;4.376;2023-02-15T05:21:09;55.28;;;21.73;;
70052;SDS011;57398;52.032;4.376;2023-02-15T05:23:57;51.42;;;21.60;;
70052;SDS011;57398;52.032;4.376;2023-02-15T05:26:45;52.55;;;21.27;;
70052;SDS011;57398;52.032;4.376;2023-02-15T05:29:56;51.60;;;21.03;;
70052;SDS011;57398;52.032;4.376;2023-02-15T05:32:45;53.47;;;19.92;;
70052;SDS011;57398;52.032;4.376;2023-02-15T05:35:34;51.83;;;21.38;;
70052;SDS011;57398;52.032;4.376;2023-02-15T05:38:23;49.10;;;20.52;;
70052;SDS011;57398;52.032;4.376;2023-02-15T05:41:11;52.25;;;20.85;;
70052;SDS011;57398;52.032;4.376;2023-02-15T05:43:59;51.90;;;20.97;;
70052;SDS011;57398;52.032;4.376;2023-02-15T05:46:47;51.45;;;20.55;;
70052;SDS011;57398;52.032;4.376;2023-02-15T05:49:35;51.15;;;21.48;;
70052;SDS011;57398;52.032;4.376;2023-02-15T05:52:24;51.38;;;21.23;;
70052;SDS011;57398;52.032;4.376;2023-02-15T05:55:13;51.58;;;21.27;;
70052;SDS011;57398;52.032;4.376;2023-02-15T05:58:01;54.30;;;22.27;;
70052;SDS011;57398;52.032;4.376;2023-02-15T06:00:49;52.80;;;21.23;;
70052;SDS011;57398;52.032;4.376;2023-02-15T06:03:37;48.63;;;19.48;;
70052;SDS011;57398;52.032;4.376;2023-02-15T06:06:25;48.15;;;19.98;;
70052;SDS011;57398;52.032;4.376;2023-02-15T06:09:15;53.38;;;21.17;;
70052;SDS011;57398;52.032;4.376;2023-02-15T06:12:05;50.10;;;20.73;;
70052;SDS011;57398;52.032;4.376;2023-02-15T06:14:53;54.10;;;21.35;;
70052;SDS011;57398;52.032;4.376;2023-02-15T06:17:41;51.38;;;20.85;;
70052;SDS011;57398;52.032;4.376;2023-02-15T06:20:29;53.65;;;21.83;;
70052;SDS011;57398;52.032;4.376;2023-02-15T06:23:17;53.28;;;21.50;;
70052;SDS011;57398;52.032;4.376;2023-02-15T06:26:07;52.93;;;21.07;;
70052;SDS011;57398;52.032;4.376;2023-02-15T06:28:55;50.22;;;20.85;;
70052;SDS011;57398;52.032;4.376;2023-02-15T06:31:43;51.50;;;21.13;;
70052;SDS011;57398;52.032;4.376;2023-02-15T06:34:32;46.45;;;20.38;;
70052;SDS011;57398;52.032;4.376;2023-02-15T06:37:20;55.38;;;22.63;;
70052;SDS011;57398;52.032;4.376;2023-02-15T06:40:09;56.80;;;21.87;;
70052;SDS011;57398;52.032;4.376;2023-02-15T06:42:58;59.53;;;22.73;;
70052;SDS011;57398;52.032;4.376;2023-02-15T06:45:46;56.30;;;22.33;;
70052;SDS011;57398;52.032;4.376;2023-02-15T06:48:35;58.83;;;22.88;;
70052;SDS011;57398;52.032;4.376;2023-02-15T06:51:23;60.22;;;23.77;;
70052;SDS011;57398;52.032;4.376;2023-02-15T06:54:11;51.77;;;22.37;;
70052;SDS011;57398;52.032;4.376;2023-02-15T06:56:59;57.42;;;22.10;;
70052;SDS011;57398;52.032;4.376;2023-02-15T06:59:48;64.05;;;23.10;;
70052;SDS011;57398;52.032;4.376;2023-02-15T07:02:36;54.15;;;21.92;;
70052;SDS011;57398;52.032;4.376;2023-02-15T07:05:24;52.50;;;22.08;;
70052;SDS011;57398;52.032;4.376;2023-02-15T07:08:17;52.57;;;22.93;;
70052;SDS011;57398;52.032;4.376;2023-02-15T07:11:06;62.35;;;24.23;;
70052;SDS011;57398;52.032;4.376;2023-02-15T07:14:12;59.53;;;22.85;;
70052;SDS011;57398;52.032;4.376;2023-02-15T07:17:02;54.50;;;21.75;;
70052;SDS011;57398;52.032;4.376;2023-02-15T07:19:50;53.00;;;21.63;;
70052;SDS011;57398;52.032;4.376;2023-02-15T07:22:39;58.13;;;22.10;;
70052;SDS011;57398;52.032;4.376;2023-02-15T07:25:27;52.47;;;22.08;;
70052;SDS011;57398;52.032;4.376;2023-02-15T07:28:15;54.78;;;21.60;;
70052;SDS011;57398;52.032;4.376;2023-02-15T07:31:04;52.65;;;22.75;;
70052;SDS011;57398;52.032;4.376;2023-02-15T07:33:54;54.40;;;21.52;;
70052;SDS011;57398;52.032;4.376;2023-02-15T07:36:43;54.50;;;21.80;;
70052;SDS011;57398;52.032;4.376;2023-02-15T07:39:32;55.17;;;21.75;;
70052;SDS011;57398;52.032;4.376;2023-02-15T07:42:20;54.38;;;21.25;;
70052;SDS011;57398;52.032;4.376;2023-02-15T07:45:08;57.45;;;21.85;;
70052;SDS011;57398;52.032;4.376;2023-02-15T07:47:57;56.80;;;22.73;;
70052;SDS011;57398;52.032;4.376;2023-02-15T07:50:46;60.07;;;23.13;;
70052;SDS011;57398;52.032;4.376;2023-02-15T07:53:34;56.75;;;23.27;;
70052;SDS011;57398;52.032;4.376;2023-02-15T07:56:23;56.35;;;22.23;;
70052;SDS011;57398;52.032;4.376;2023-02-15T07:59:12;62.40;;;23.60;;
70052;SDS011;57398;52.032;4.376;2023-02-15T08:02:00;67.32;;;23.73;;
70052;SDS011;57398;52.032;4.376;2023-02-15T08:04:49;68.90;;;25.83;;
70052;SDS011;57398;52.032;4.376;2023-02-15T08:07:39;64.22;;;25.98;;
70052;SDS011;57398;52.032;4.376;2023-02-15T08:10:27;69.07;;;25.88;;
70052;SDS011;57398;52.032;4.376;2023-02-15T08:13:29;64.60;;;26.40;;
70052;SDS011;57398;52.032;4.376;2023-02-15T08:16:17;74.95;;;25.90;;
70052;SDS011;57398;52.032;4.376;2023-02-15T08:19:06;76.37;;;27.93;;
70052;SDS011;57398;52.032;4.376;2023-02-15T08:21:57;71.97;;;27.67;;
70052;SDS011;57398;52.032;4.376;2023-02-15T08:24:48;69.00;;;26.83;;
70052;SDS011;57398;52.032;4.376;2023-02-15T08:27:36;78.70;;;28.38;;
70052;SDS011;57398;52.032;4.376;2023-02-15T08:30:25;74.63;;;29.08;;
70052;SDS011;57398;52.032;4.376;2023-02-15T08:33:14;77.97;;;29.03;;
70052;SDS011;57398;52.032;4.376;2023-02-15T08:36:04;80.35;;;29.67;;
70052;SDS011;57398;52.032;4.376;2023-02-15T08:38:55;77.05;;;29.75;;
70052;SDS011;57398;52.032;4.376;2023-02-15T08:41:46;82.63;;;29.95;;
70052;SDS011;57398;52.032;4.376;2023-02-15T08:44:35;81.60;;;30.42;;
70052;SDS011;57398;52.032;4.376;2023-02-15T08:47:24;80.90;;;31.23;;
70052;SDS011;57398;52.032;4.376;2023-02-15T08:50:12;79.32;;;31.33;;
70052;SDS011;57398;52.032;4.376;2023-02-15T08:53:00;85.25;;;31.30;;
70052;SDS011;57398;52.032;4.376;2023-02-15T08:55:54;77.97;;;30.70;;
70052;SDS011;57398;52.032;4.376;2023-02-15T08:58:44;85.00;;;31.27;;
70052;SDS011;57398;52.032;4.376;2023-02-15T09:01:33;80.53;;;30.73;;
70052;SDS011;57398;52.032;4.376;2023-02-15T09:04:22;86.43;;;32.05;;
70052;SDS011;57398;52.032;4.376;2023-02-15T09:07:11;87.55;;;33.00;;
70052;SDS011;57398;52.032;4.376;2023-02-15T09:09:59;84.72;;;33.15;;
70052;SDS011;57398;52.032;4.376;2023-02-15T09:12:47;88.95;;;34.17;;
70052;SDS011;57398;52.032;4.376;2023-02-15T09:15:38;91.07;;;35.03;;
70052;SDS011;57398;52.032;4.376;2023-02-15T09:18:27;94.07;;;35.10;;
70052;SDS011;57398;52.032;4.376;2023-02-15T09:21:16;96.20;;;36.22;;
70052;SDS011;57398;52.032;4.376;2023-02-15T09:24:06;103.57;;;37.88;;
70052;SDS011;57398;52.032;4.376;2023-02-15T09:26:55;102.50;;;38.80;;
70052;SDS011;57398;52.032;4.376;2023-02-15T09:29:43;103.73;;;37.97;;
70052;SDS011;57398;52.032;4.376;2023-02-15T09:32:33;111.10;;;39.35;;
70052;SDS011;57398;52.032;4.376;2023-02-15T09:35:21;113.90;;;40.50;;
70052;SDS011;57398;52.032;4.376;2023-02-15T09:38:09;115.43;;;40.33;;
70052;SDS011;57398;52.032;4.376;2023-02-15T09:41:03;110.40;;;40.08;;
70052;SDS011;57398;52.032;4.376;2023-02-15T09:44:04;118.57;;;40.93;;
70052;SDS011;57398;52.032;4.376;2023-02-15T09:47:04;113.03;;;42.63;;
70052;SDS011;57398;52.032;4.376;2023-02-15T09:50:05;114.68;;;42.78;;
70052;SDS011;57398;52.032;4.376;2023-02-15T09:53:04;128.20;;;44.85;;
70052;SDS011;57398;52.032;4.376;2023-02-15T09:56:06;123.82;;;43.13;;
70052;SDS011;57398;52.032;4.376;2023-02-15T09:59:03;118.00;;;42.30;;
70052;SDS011;57398;52.032;4.376;2023-02-15T10:02:01;120.93;;;42.47;;
70052;SDS011;57398;52.032;4.376;2023-02-15T10:05:09;122.13;;;43.47;;
70052;SDS011;57398;52.032;4.376;2023-02-15T10:11:41;110.55;;;41.05;;
70052;SDS011;57398;52.032;4.376;2023-02-15T10:14:47;110.97;;;40.87;;
70052;SDS011;57398;52.032;4.376;2023-02-15T10:17:52;114.18;;;42.47;;
70052;SDS011;57398;52.032;4.376;2023-02-15T10:20:55;100.65;;;38.80;;
70052;SDS011;57398;52.032;4.376;2023-02-15T10:23:53;90.45;;;35.22;;
70052;SDS011;57398;52.032;4.376;2023-02-15T10:26:53;77.20;;;30.05;;
70052;SDS011;57398;52.032;4.376;2023-02-15T10:29:49;69.30;;;30.60;;
70052;SDS011;57398;52.032;4.376;2023-02-15T10:32:49;68.85;;;29.45;;
70052;SDS011;57398;52.032;4.376;2023-02-15T10:35:48;65.82;;;28.10;;
70052;SDS011;57398;52.032;4.376;2023-02-15T10:38:48;60.55;;;26.92;;
70052;SDS011;57398;52.032;4.376;2023-02-15T10:41:41;60.50;;;26.42;;
70052;SDS011;57398;52.032;4.376;2023-02-15T10:44:41;58.60;;;26.20;;
70052;SDS011;57398;52.032;4.376;2023-02-15T10:47:49;59.60;;;25.83;;
70052;SDS011;57398;52.032;4.376;2023-02-15T10:50:52;56.08;;;24.05;;
70052;SDS011;57398;52.032;4.376;2023-02-15T10:53:54;57.58;;;24.35;;
70052;SDS011;57398;52.032;4.376;2023-02-15T10:56:53;52.58;;;24.02;;
70052;SDS011;57398;52.032;4.376;2023-02-15T10:59:57;53.17;;;24.23;;
70052;SDS011;57398;52.032;4.376;2023-02-15T11:02:57;58.78;;;25.00;;
70052;SDS011;57398;52.032;4.376;2023-02-15T11:06:02;52.90;;;24.17;;
70052;SDS011;57398;52.032;4.376;2023-02-15T11:08:54;61.30;;;25.17;;
70052;SDS011;57398;52.032;4.376;2023-02-15T11:11:45;57.45;;;24.20;;
70052;SDS011;57398;52.032;4.376;2023-02-15T11:14:41;53.87;;;23.23;;
70052;SDS011;57398;52.032;4.376;2023-02-15T11:17:35;53.92;;;24.90;;
70052;SDS011;57398;52.032;4.376;2023-02-15T11:20:28;52.90;;;23.73;;
70052;SDS011;57398;52.032;4.376;2023-02-15T11:23:21;53.45;;;23.73;;
70052;SDS011;57398;52.032;4.376;2023-02-15T11:26:26;52.58;;;22.25;;
70052;SDS011;57398;52.032;4.376;2023-02-15T11:29:33;59.83;;;25.70;;
70052;SDS011;57398;52.032;4.376;2023-02-15T11:32:25;60.17;;;25.95;;
70052;SDS011;57398;52.032;4.376;2023-02-15T11:35:18;63.22;;;24.70;;
70052;SDS011;57398;52.032;4.376;2023-02-15T11:38:12;54.08;;;25.52;;
70052;SDS011;57398;52.032;4.376;2023-02-15T11:41:07;79.40;;;28.35;;
70052;SDS011;57398;52.032;4.376;2023-02-15T11:43:58;53.93;;;24.20;;
70052;SDS011;57398;52.032;4.376;2023-02-15T11:46:53;73.03;;;27.77;;
70052;SDS011;57398;52.032;4.376;2023-02-15T11:49:41;55.05;;;24.48;;
70052;SDS011;57398;52.032;4.376;2023-02-15T11:52:29;59.45;;;25.73;;
70052;SDS011;57398;52.032;4.376;2023-02-15T11:55:19;56.97;;;26.23;;
70052;SDS011;57398;52.032;4.376;2023-02-15T11:58:14;62.37;;;26.17;;
70052;SDS011;57398;52.032;4.376;2023-02-15T12:01:11;65.65;;;26.85;;
70052;SDS011;57398;52.032;4.376;2023-02-15T12:04:04;50.83;;;23.25;;
70052;SDS011;57398;52.032;4.376;2023-02-15T12:06:58;53.05;;;24.52;;
70052;SDS011;57398;52.032;4.376;2023-02-15T12:09:50;49.55;;;22.98;;
70052;SDS011;57398;52.032;4.376;2023-02-15T12:12:43;60.40;;;25.17;;
70052;SDS011;57398;52.032;4.376;2023-02-15T12:15:33;58.33;;;24.63;;
70052;SDS011;57398;52.032;4.376;2023-02-15T12:21:38;61.13;;;25.55;;
70052;SDS011;57398;52.032;4.376;2023-02-15T12:24:29;54.55;;;23.38;;
70052;SDS011;57398;52.032;4.376;2023-02-15T12:27:20;53.53;;;23.93;;
70052;SDS011;57398;52.032;4.376;2023-02-15T12:30:15;50.35;;;24.13;;
70052;SDS011;57398;52.032;4.376;2023-02-15T12:33:13;50.45;;;23.23;;
70052;SDS011;57398;52.032;4.376;2023-02-15T12:36:15;52.47;;;21.92;;
70052;SDS011;57398;52.032;4.376;2023-02-15T12:39:16;47.88;;;21.52;;
70052;SDS011;57398;52.032;4.376;2023-02-15T12:42:14;47.20;;;20.87;;
70052;SDS011;57398;52.032;4.376;2023-02-15T12:45:10;52.22;;;21.98;;
70052;SDS011;57398;52.032;4.376;2023-02-15T12:48:15;49.33;;;22.10;;
70052;SDS011;57398;52.032;4.376;2023-02-15T12:51:07;52.75;;;22.08;;
70052;SDS011;57398;52.032;4.376;2023-02-15T12:54:00;52.60;;;23.48;;
70052;SDS011;57398;52.032;4.376;2023-02-15T12:57:13;47.83;;;21.47;;
70052;SDS011;57398;52.032;4.376;2023-02-15T13:00:23;48.90;;;22.50;;
70052;SDS011;57398;52.032;4.376;2023-02-15T13:03:17;49.13;;;21.98;;
70052;SDS011;57398;52.032;4.376;2023-02-15T13:06:08;55.92;;;22.23;;
70052;SDS011;57398;52.032;4.376;2023-02-15T13:08:57;46.88;;;21.73;;
70052;SDS011;57398;52.032;4.376;2023-02-15T13:11:53;44.50;;;21.47;;
70052;SDS011;57398;52.032;4.376;2023-02-15T13:14:43;51.28;;;22.35;;
70052;SDS011;57398;52.032;4.376;2023-02-15T13:17:33;50.53;;;22.38;;
70052;SDS011;57398;52.032;4.376;2023-02-15T13:20:23;49.85;;;22.17;;
70052;SDS011;57398;52.032;4.376;2023-02-15T13:23:19;49.70;;;22.42;;
70052;SDS011;57398;52.032;4.376;2023-02-15T13:26:14;51.93;;;23.83;;
70052;SDS011;57398;52.032;4.376;2023-02-15T13:29:06;47.90;;;22.00;;
70052;SDS011;57398;52.032;4.376;2023-02-15T13:32:05;49.22;;;22.52;;
70052;SDS011;57398;52.032;4.376;2023-02-15T13:34:56;48.97;;;22.88;;
70052;SDS011;57398;52.032;4.376;2023-02-15T13:37:53;51.60;;;22.73;;
70052;SDS011;57398;52.032;4.376;2023-02-15T13:40:55;46.77;;;22.40;;
70052;SDS011;57398;52.032;4.376;2023-02-15T13:43:49;49.72;;;23.30;;
70052;SDS011;57398;52.032;4.376;2023-02-15T13:46:48;47.10;;;21.67;;
70052;SDS011;57398;52.032;4.376;2023-02-15T13:49:47;51.22;;;23.20;;
70052;SDS011;57398;52.032;4.376;2023-02-15T13:52:48;52.17;;;22.67;;
70052;SDS011;57398;52.032;4.376;2023-02-15T13:55:47;51.23;;;22.93;;
70052;SDS011;57398;52.032;4.376;2023-02-15T13:58:49;49.33;;;21.85;;
70052;SDS011;57398;52.032;4.376;2023-02-15T14:01:53;49.20;;;22.48;;
70052;SDS011;57398;52.032;4.376;2023-02-15T14:04:58;47.47;;;21.83;;
70052;SDS011;57398;52.032;4.376;2023-02-15T14:08:15;47.70;;;22.00;;
70052;SDS011;57398;52.032;4.376;2023-02-15T14:11:12;42.93;;;20.13;;
70052;SDS011;57398;52.032;4.376;2023-02-15T14:17:41;48.92;;;22.50;;
70052;SDS011;57398;52.032;4.376;2023-02-15T14:20:47;49.08;;;21.20;;
70052;SDS011;57398;52.032;4.376;2023-02-15T14:23:55;49.65;;;22.05;;
70052;SDS011;57398;52.032;4.376;2023-02-15T14:26:56;53.07;;;21.87;;
70052;SDS011;57398;52.032;4.376;2023-02-15T14:29:53;43.90;;;20.50;;
70052;SDS011;57398;52.032;4.376;2023-02-15T14:32:45;46.80;;;21.42;;
70052;SDS011;57398;52.032;4.376;2023-02-15T14:35:37;47.10;;;21.25;;
70052;SDS011;57398;52.032;4.376;2023-02-15T14:38:36;47.53;;;21.52;;
70052;SDS011;57398;52.032;4.376;2023-02-15T14:41:37;46.27;;;21.40;;
70052;SDS011;57398;52.032;4.376;2023-02-15T14:44:32;47.75;;;21.73;;
70052;SDS011;57398;52.032;4.376;2023-02-15T14:47:25;50.58;;;22.27;;
70052;SDS011;57398;52.032;4.376;2023-02-15T14:53:34;47.17;;;21.38;;
70052;SDS011;57398;52.032;4.376;2023-02-15T14:56:25;45.13;;;21.47;;
70052;SDS011;57398;52.032;4.376;2023-02-15T14:59:16;45.97;;;21.00;;
70052;SDS011;57398;52.032;4.376;2023-02-15T15:02:09;45.83;;;20.80;;
70052;SDS011;57398;52.032;4.376;2023-02-15T15:05:02;47.20;;;20.50;;
70052;SDS011;57398;52.032;4.376;2023-02-15T15:07:55;47.40;;;21.05;;
70052;SDS011;57398;52.032;4.376;2023-02-15T15:10:46;42.27;;;20.83;;
70052;SDS011;57398;52.032;4.376;2023-02-15T15:13:36;45.58;;;20.90;;
70052;SDS011;57398;52.032;4.376;2023-02-15T15:16:34;45.92;;;21.35;;
70052;SDS011;57398;52.032;4.376;2023-02-15T15:26:29;45.37;;;21.27;;
70052;SDS011;57398;52.032;4.376;2023-02-15T15:29:28;46.95;;;21.38;;
70052;SDS011;57398;52.032;4.376;2023-02-15T15:32:29;44.22;;;21.08;;
70052;SDS011;57398;52.032;4.376;2023-02-15T15:35:21;47.92;;;21.75;;
70052;SDS011;57398;52.032;4.376;2023-02-15T15:38:22;48.42;;;21.90;;
70052;SDS011;57398;52.032;4.376;2023-02-15T15:41:30;50.77;;;22.43;;
70052;SDS011;57398;52.032;4.376;2023-02-15T15:48:22;48.03;;;21.25;;
70052;SDS011;57398;52.032;4.376;2023-02-15T15:51:18;47.13;;;21.05;;
70052;SDS011;57398;52.032;4.376;2023-02-15T15:54:11;46.78;;;21.00;;
70052;SDS011;57398;52.032;4.376;2023-02-15T15:57:03;51.17;;;21.50;;
70052;SDS011;57398;52.032;4.376;2023-02-15T15:59:52;48.28;;;22.00;;
70052;SDS011;57398;52.032;4.376;2023-02-15T16:02:49;49.67;;;21.52;;
70052;SDS011;57398;52.032;4.376;2023-02-15T16:05:39;44.92;;;20.50;;
70052;SDS011;57398;52.032;4.376;2023-02-15T16:08:31;49.60;;;21.67;;
70052;SDS011;57398;52.032;4.376;2023-02-15T16:11:21;49.57;;;21.10;;
70052;SDS011;57398;52.032;4.376;2023-02-15T16:14:12;49.42;;;22.17;;
70052;SDS011;57398;52.032;4.376;2023-02-15T16:17:03;48.58;;;22.10;;
70052;SDS011;57398;52.032;4.376;2023-02-15T16:19:56;47.42;;;21.73;;
70052;SDS011;57398;52.032;4.376;2023-02-15T16:22:53;46.30;;;21.60;;
70052;SDS011;57398;52.032;4.376;2023-02-15T16:25:54;47.83;;;21.43;;
70052;SDS011;57398;52.032;4.376;2023-02-15T16:28:52;47.38;;;21.05;;
70052;SDS011;57398;52.032;4.376;2023-02-15T16:31:41;43.15;;;20.92;;
70052;SDS011;57398;52.032;4.376;2023-02-15T16:34:29;45.00;;;20.35;;
70052;SDS011;57398;52.032;4.376;2023-02-15T16:37:19;45.53;;;20.75;;
70052;SDS011;57398;52.032;4.376;2023-02-15T16:40:14;48.13;;;21.07;;
70052;SDS011;57398;52.032;4.376;2023-02-15T16:43:16;47.00;;;21.73;;
70052;SDS011;57398;52.032;4.376;2023-02-15T16:46:10;46.70;;;21.52;;
70052;SDS011;57398;52.032;4.376;2023-02-15T16:49:03;48.35;;;22.02;;
70052;SDS011;57398;52.032;4.376;2023-02-15T16:51:54;45.90;;;21.45;;
70052;SDS011;57398;52.032;4.376;2023-02-15T16:54:45;46.10;;;21.23;;
70052;SDS011;57398;52.032;4.376;2023-02-15T16:57:36;46.75;;;20.83;;
70052;SDS011;57398;52.032;4.376;2023-02-15T17:00:26;45.67;;;19.80;;
70052;SDS011;57398;52.032;4.376;2023-02-15T17:03:22;47.75;;;21.38;;
70052;SDS011;57398;52.032;4.376;2023-02-15T17:06:18;45.40;;;20.92;;
70052;SDS011;57398;52.032;4.376;2023-02-15T17:09:13;44.63;;;21.23;;
70052;SDS011;57398;52.032;4.376;2023-02-15T17:12:08;48.47;;;21.83;;
70052;SDS011;57398;52.032;4.376;2023-02-15T17:14:58;47.70;;;21.13;;
70052;SDS011;57398;52.032;4.376;2023-02-15T17:17:46;46.10;;;20.25;;
70052;SDS011;57398;52.032;4.376;2023-02-15T17:20:35;49.13;;;20.10;;
70052;SDS011;57398;52.032;4.376;2023-02-15T17:23:28;52.63;;;21.63;;